| Date | Time | Temp. (oF) | Dew Point (oF) | Rel. Hum. (%) | Press. (in.) | Wind Dir. | Wind Speed (mph) | Hourly Rainfall (in.) |
|
|---|---|---|---|---|---|---|---|---|---|
| 1 | 08/14 | 00:00 | 81 | 68 | 66 | 30.07 | SSW | 2 | 0.00 |
| 2 | 08/13 | 23:00 | 84 | 68 | 60 | 30.06 | SSW | 1 | 0.00 |
| 3 | 08/13 | 22:00 | 85 | 66 | 55 | 30.05 | SSE | 3 | 0.00 |
| 4 | 08/13 | 21:00 | 87 | 65 | 49 | 30.03 | S | 2 | 0.00 |
| 5 | 08/13 | 20:00 | 93 | 64 | 40 | 30.01 | SSW | 1 | 0.00 |
| 6 | 08/13 | 19:00 | 96 | 61 | 33 | 30.00 | SSW | 2 | 0.00 |
| 7 | 08/13 | 18:00 | 98 | 61 | 31 | 30.00 | WSW | 4 | 0.00 |
| 8 | 08/13 | 17:00 | 97 | 61 | 32 | 30.01 | WSW | 2 | 0.00 |
| 9 | 08/13 | 16:00 | 98 | 62 | 32 | 30.02 | W | 1 | 0.00 |
| 10 | 08/13 | 15:00 | 97 | 61 | 32 | 30.04 | SSW | 5 | 0.00 |
| 11 | 08/13 | 14:00 | 96 | 63 | 35 | 30.06 | SSE | 10 | 0.00 |
| 12 | 08/13 | 13:00 | 95 | 65 | 38 | 30.09 | WNW | 1 | 0.00 |
| 13 | 08/13 | 12:00 | 92 | 66 | 43 | 30.11 | NE | 4 | 0.00 |
| 14 | 08/13 | 11:00 | 89 | 69 | 53 | 30.13 | W | 5 | 0.00 |
| 15 | 08/13 | 10:00 | 85 | 68 | 59 | 30.13 | NW | 2 | 0.00 |
| 16 | 08/13 | 09:00 | 80 | 69 | 70 | 30.13 | WNW | 3 | 0.00 |
| 17 | 08/13 | 08:00 | 72 | 70 | 94 | 30.11 | SW | 0 | 0.00 |
| 18 | 08/13 | 07:00 | 71 | 68 | 92 | 30.10 | SW | 0 | 0.00 |
| 19 | 08/13 | 06:00 | 72 | 68 | 89 | 30.10 | SW | 0 | 0.00 |
| 20 | 08/13 | 05:00 | 72 | 68 | 88 | 30.09 | SSW | 0 | 0.00 |
| 21 | 08/13 | 04:00 | 74 | 68 | 84 | 30.09 | SSW | 1 | 0.00 |
| 22 | 08/13 | 03:00 | 77 | 69 | 78 | 30.08 | SW | 0 | 0.00 |
| 23 | 08/13 | 02:00 | 77 | 68 | 76 | 30.08 | SSW | 0 | 0.00 |
| 24 | 08/13 | 01:00 | 79 | 68 | 70 | 30.07 | SW | 2 | 0.00 |